sensor_id;sensor_type;location;lat;lon;timestamp;pressure;altitude;pressure_sealevel;temperature;humidity
50226;BME280;36113;50.742;6.432;2023-08-24T00:00:34;99063.88;;;19.08;59.84
50226;BME280;36113;50.742;6.432;2023-08-24T00:03:01;99055.78;;;19.11;59.94
50226;BME280;36113;50.742;6.432;2023-08-24T00:05:28;99054.00;;;19.15;59.50
50226;BME280;36113;50.742;6.432;2023-08-24T00:07:53;99058.88;;;19.18;59.58
50226;BME280;36113;50.742;6.432;2023-08-24T00:10:18;99054.00;;;19.15;59.87
50226;BME280;36113;50.742;6.432;2023-08-24T00:12:43;99052.06;;;19.16;59.44
50226;BME280;36113;50.742;6.432;2023-08-24T00:15:09;99043.78;;;19.16;59.44
50226;BME280;36113;50.742;6.432;2023-08-24T00:17:35;99052.38;;;19.14;59.64
50226;BME280;36113;50.742;6.432;2023-08-24T00:20:00;99054.31;;;19.05;60.81
50226;BME280;36113;50.742;6.432;2023-08-24T00:22:29;99048.31;;;19.03;60.08
50226;BME280;36113;50.742;6.432;2023-08-24T00:24:54;99038.94;;;19.04;59.96
50226;BME280;36113;50.742;6.432;2023-08-24T00:27:19;99036.31;;;19.08;60.09
50226;BME280;36113;50.742;6.432;2023-08-24T00:29:44;99032.94;;;19.11;59.67
50226;BME280;36113;50.742;6.432;2023-08-24T00:32:10;99032.78;;;19.16;59.29
50226;BME280;36113;50.742;6.432;2023-08-24T00:34:35;99022.72;;;19.20;58.67
50226;BME280;36113;50.742;6.432;2023-08-24T00:37:00;99034.38;;;19.08;59.91
50226;BME280;36113;50.742;6.432;2023-08-24T00:39:26;99025.13;;;18.95;60.69
50226;BME280;36113;50.742;6.432;2023-08-24T00:41:52;99020.69;;;18.77;62.44
50226;BME280;36113;50.742;6.432;2023-08-24T00:44:17;99022.75;;;18.63;63.40
50226;BME280;36113;50.742;6.432;2023-08-24T00:46:42;99011.03;;;18.48;63.92
50226;BME280;36113;50.742;6.432;2023-08-24T00:49:07;99016.88;;;18.47;64.08
50226;BME280;36113;50.742;6.432;2023-08-24T00:51:33;99023.53;;;18.54;62.40
50226;BME280;36113;50.742;6.432;2023-08-24T00:53:59;99029.75;;;18.69;61.27
50226;BME280;36113;50.742;6.432;2023-08-24T00:56:24;99027.19;;;18.81;59.38
50226;BME280;36113;50.742;6.432;2023-08-24T00:58:50;99030.66;;;18.95;58.50
50226;BME280;36113;50.742;6.432;2023-08-24T01:01:15;99027.56;;;19.06;57.54
50226;BME280;36113;50.742;6.432;2023-08-24T01:03:40;99010.72;;;19.16;57.12
50226;BME280;36113;50.742;6.432;2023-08-24T01:06:06;99012.34;;;19.17;57.23
50226;BME280;36113;50.742;6.432;2023-08-24T01:08:32;99017.34;;;19.23;57.34
50226;BME280;36113;50.742;6.432;2023-08-24T01:11:12;99014.28;;;19.16;58.99
50226;BME280;36113;50.742;6.432;2023-08-24T01:13:50;99009.25;;;19.10;59.39
50226;BME280;36113;50.742;6.432;2023-08-24T01:16:21;99006.69;;;19.22;58.68
50226;BME280;36113;50.742;6.432;2023-08-24T01:18:51;98998.91;;;19.33;58.04
50226;BME280;36113;50.742;6.432;2023-08-24T01:21:19;98997.94;;;19.37;57.89
50226;BME280;36113;50.742;6.432;2023-08-24T01:23:53;98989.31;;;19.48;57.47
50226;BME280;36113;50.742;6.432;2023-08-24T01:26:24;98990.44;;;19.55;57.50
50226;BME280;36113;50.742;6.432;2023-08-24T01:28:49;98994.00;;;19.56;57.58
50226;BME280;36113;50.742;6.432;2023-08-24T01:31:15;98982.97;;;19.56;57.89
50226;BME280;36113;50.742;6.432;2023-08-24T01:33:41;98946.97;;;19.35;57.85
50226;BME280;36113;50.742;6.432;2023-08-24T01:36:06;98978.56;;;19.63;57.38
50226;BME280;36113;50.742;6.432;2023-08-24T01:38:32;98976.78;;;19.68;57.12
50226;BME280;36113;50.742;6.432;2023-08-24T01:41:15;98973.22;;;19.67;57.33
50226;BME280;36113;50.742;6.432;2023-08-24T01:43:43;98969.31;;;19.68;57.89
50226;BME280;36113;50.742;6.432;2023-08-24T01:46:10;98950.00;;;19.68;57.86
50226;BME280;36113;50.742;6.432;2023-08-24T01:48:36;98950.00;;;19.68;58.53
50226;BME280;36113;50.742;6.432;2023-08-24T01:51:02;98947.75;;;19.70;58.48
50226;BME280;36113;50.742;6.432;2023-08-24T01:53:32;98948.41;;;19.67;58.51
50226;BME280;36113;50.742;6.432;2023-08-24T01:55:57;98955.88;;;19.58;59.91
50226;BME280;36113;50.742;6.432;2023-08-24T01:58:23;98949.41;;;19.54;59.96
50226;BME280;36113;50.742;6.432;2023-08-24T02:00:48;98944.06;;;19.57;59.53
50226;BME280;36113;50.742;6.432;2023-08-24T02:03:14;98936.41;;;19.63;58.91
50226;BME280;36113;50.742;6.432;2023-08-24T02:05:39;98932.38;;;19.69;58.91
50226;BME280;36113;50.742;6.432;2023-08-24T02:08:04;98933.31;;;19.73;58.46
50226;BME280;36113;50.742;6.432;2023-08-24T02:10:29;98922.91;;;19.79;58.29
50226;BME280;36113;50.742;6.432;2023-08-24T02:12:54;98914.31;;;19.80;58.02
50226;BME280;36113;50.742;6.432;2023-08-24T02:15:20;98916.88;;;19.85;57.34
50226;BME280;36113;50.742;6.432;2023-08-24T02:17:45;98912.47;;;19.93;57.09
50226;BME280;36113;50.742;6.432;2023-08-24T02:20:10;98907.75;;;19.94;57.07
50226;BME280;36113;50.742;6.432;2023-08-24T02:22:38;98912.63;;;19.97;56.73
50226;BME280;36113;50.742;6.432;2023-08-24T02:25:04;98908.06;;;20.01;56.13
50226;BME280;36113;50.742;6.432;2023-08-24T02:27:30;98905.28;;;20.01;56.30
50226;BME280;36113;50.742;6.432;2023-08-24T02:29:55;98909.34;;;20.03;55.93
50226;BME280;36113;50.742;6.432;2023-08-24T02:32:21;98909.00;;;20.05;55.62
50226;BME280;36113;50.742;6.432;2023-08-24T02:34:46;98915.97;;;20.11;55.95
50226;BME280;36113;50.742;6.432;2023-08-24T02:37:11;98914.16;;;20.15;55.57
50226;BME280;36113;50.742;6.432;2023-08-24T02:39:36;98912.84;;;20.21;55.62
50226;BME280;36113;50.742;6.432;2023-08-24T02:42:01;98911.38;;;20.24;55.59
50226;BME280;36113;50.742;6.432;2023-08-24T02:44:27;98917.69;;;20.24;55.41
50226;BME280;36113;50.742;6.432;2023-08-24T02:46:53;98917.69;;;20.24;55.89
50226;BME280;36113;50.742;6.432;2023-08-24T02:49:19;98916.34;;;20.31;55.32
50226;BME280;36113;50.742;6.432;2023-08-24T02:51:44;98912.91;;;20.34;55.19
50226;BME280;36113;50.742;6.432;2023-08-24T02:54:09;98906.66;;;20.24;56.02
50226;BME280;36113;50.742;6.432;2023-08-24T02:56:34;98922.28;;;20.12;57.63
50226;BME280;36113;50.742;6.432;2023-08-24T02:58:59;98921.84;;;20.01;58.02
50226;BME280;36113;50.742;6.432;2023-08-24T03:01:25;98924.81;;;19.96;58.41
50226;BME280;36113;50.742;6.432;2023-08-24T03:03:51;98925.28;;;19.98;58.45
50226;BME280;36113;50.742;6.432;2023-08-24T03:06:16;98934.03;;;20.00;58.04
50226;BME280;36113;50.742;6.432;2023-08-24T03:08:41;98941.66;;;20.03;57.76
50226;BME280;36113;50.742;6.432;2023-08-24T03:11:07;98942.59;;;20.07;57.30
50226;BME280;36113;50.742;6.432;2023-08-24T03:13:34;98947.31;;;20.07;57.59
50226;BME280;36113;50.742;6.432;2023-08-24T03:16:02;98964.38;;;20.09;57.78
50226;BME280;36113;50.742;6.432;2023-08-24T03:18:28;98978.63;;;20.11;57.97
50226;BME280;36113;50.742;6.432;2023-08-24T03:20:53;98976.38;;;20.13;58.04
50226;BME280;36113;50.742;6.432;2023-08-24T03:23:18;98984.66;;;20.13;58.15
50226;BME280;36113;50.742;6.432;2023-08-24T03:25:43;98986.56;;;20.12;58.23
50226;BME280;36113;50.742;6.432;2023-08-24T03:28:09;98994.22;;;20.15;58.46
50226;BME280;36113;50.742;6.432;2023-08-24T03:30:38;98998.25;;;20.18;58.33
50226;BME280;36113;50.742;6.432;2023-08-24T03:33:04;98998.84;;;20.23;57.87
50226;BME280;36113;50.742;6.432;2023-08-24T03:35:32;98991.72;;;20.22;58.48
50226;BME280;36113;50.742;6.432;2023-08-24T03:37:58;98995.78;;;20.25;58.19
50226;BME280;36113;50.742;6.432;2023-08-24T03:40:23;99000.97;;;20.26;58.72
50226;BME280;36113;50.742;6.432;2023-08-24T03:42:48;99006.81;;;20.25;59.05
50226;BME280;36113;50.742;6.432;2023-08-24T03:45:14;98995.16;;;20.19;59.51
50226;BME280;36113;50.742;6.432;2023-08-24T03:47:39;98983.72;;;20.00;62.04
50226;BME280;36113;50.742;6.432;2023-08-24T03:50:04;98979.41;;;19.73;62.85
50226;BME280;36113;50.742;6.432;2023-08-24T03:52:30;98983.28;;;19.54;63.56
50226;BME280;36113;50.742;6.432;2023-08-24T03:54:56;98984.44;;;19.44;64.42
50226;BME280;36113;50.742;6.432;2023-08-24T03:57:21;98976.19;;;19.36;64.77
50226;BME280;36113;50.742;6.432;2023-08-24T03:59:46;98983.78;;;19.30;65.63
50226;BME280;36113;50.742;6.432;2023-08-24T04:02:12;98978.94;;;19.27;65.65
50226;BME280;36113;50.742;6.432;2023-08-24T04:04:37;98973.44;;;19.27;65.99
50226;BME280;36113;50.742;6.432;2023-08-24T04:07:02;98971.16;;;19.29;66.92
50226;BME280;36113;50.742;6.432;2023-08-24T04:09:28;98972.78;;;19.21;68.31
50226;BME280;36113;50.742;6.432;2023-08-24T04:11:53;98967.44;;;19.16;69.63
50226;BME280;36113;50.742;6.432;2023-08-24T04:14:18;98961.63;;;19.09;70.93
50226;BME280;36113;50.742;6.432;2023-08-24T04:16:43;98947.66;;;19.06;71.72
50226;BME280;36113;50.742;6.432;2023-08-24T04:19:08;98932.59;;;19.03;72.56
50226;BME280;36113;50.742;6.432;2023-08-24T04:21:34;98918.19;;;18.97;72.56
50226;BME280;36113;50.742;6.432;2023-08-24T04:23:59;98924.19;;;18.82;72.61
50226;BME280;36113;50.742;6.432;2023-08-24T04:26:24;98911.97;;;18.66;73.42
50226;BME280;36113;50.742;6.432;2023-08-24T04:28:50;98906.44;;;18.48;74.83
50226;BME280;36113;50.742;6.432;2023-08-24T04:31:15;98887.00;;;18.36;76.19
50226;BME280;36113;50.742;6.432;2023-08-24T04:33:40;98879.53;;;18.28;76.84
50226;BME280;36113;50.742;6.432;2023-08-24T04:36:06;98875.00;;;18.23;77.28
50226;BME280;36113;50.742;6.432;2023-08-24T04:38:31;98884.06;;;18.24;76.92
50226;BME280;36113;50.742;6.432;2023-08-24T04:40:56;98889.44;;;18.29;76.57
50226;BME280;36113;50.742;6.432;2023-08-24T04:43:22;98899.56;;;18.19;77.14
50226;BME280;36113;50.742;6.432;2023-08-24T04:45:48;98885.19;;;18.14;77.73
50226;BME280;36113;50.742;6.432;2023-08-24T04:48:13;98877.91;;;18.18;77.81
50226;BME280;36113;50.742;6.432;2023-08-24T04:50:39;98869.50;;;18.23;77.56
50226;BME280;36113;50.742;6.432;2023-08-24T04:53:04;98863.19;;;18.23;77.74
50226;BME280;36113;50.742;6.432;2023-08-24T04:55:29;98860.59;;;18.26;78.02
50226;BME280;36113;50.742;6.432;2023-08-24T04:57:55;98863.69;;;18.25;78.19
50226;BME280;36113;50.742;6.432;2023-08-24T05:00:20;98855.91;;;18.27;78.12
50226;BME280;36113;50.742;6.432;2023-08-24T05:02:46;98838.75;;;18.30;78.21
50226;BME280;36113;50.742;6.432;2023-08-24T05:05:11;98844.09;;;18.35;77.45
50226;BME280;36113;50.742;6.432;2023-08-24T05:07:39;98856.56;;;18.41;77.22
50226;BME280;36113;50.742;6.432;2023-08-24T05:10:04;98854.78;;;18.45;77.40
50226;BME280;36113;50.742;6.432;2023-08-24T05:12:30;98852.34;;;18.44;78.07
50226;BME280;36113;50.742;6.432;2023-08-24T05:14:58;98851.06;;;18.41;77.76
50226;BME280;36113;50.742;6.432;2023-08-24T05:17:24;98852.69;;;18.42;77.96
50226;BME280;36113;50.742;6.432;2023-08-24T05:19:51;98853.16;;;18.44;78.26
50226;BME280;36113;50.742;6.432;2023-08-24T05:22:18;98847.03;;;18.47;77.81
50226;BME280;36113;50.742;6.432;2023-08-24T05:24:43;98838.28;;;18.54;77.47
50226;BME280;36113;50.742;6.432;2023-08-24T05:27:08;98833.59;;;18.54;77.36
50226;BME280;36113;50.742;6.432;2023-08-24T05:29:34;98831.50;;;18.60;77.07
50226;BME280;36113;50.742;6.432;2023-08-24T05:31:59;98833.28;;;18.65;77.05
50226;BME280;36113;50.742;6.432;2023-08-24T05:34:24;98834.06;;;18.65;77.09
50226;BME280;36113;50.742;6.432;2023-08-24T05:36:50;98830.03;;;18.63;76.81
50226;BME280;36113;50.742;6.432;2023-08-24T05:39:15;98834.56;;;18.58;77.29
50226;BME280;36113;50.742;6.432;2023-08-24T05:41:40;98825.31;;;18.54;77.48
50226;BME280;36113;50.742;6.432;2023-08-24T05:44:06;98823.72;;;18.53;77.32
50226;BME280;36113;50.742;6.432;2023-08-24T05:46:31;98812.72;;;18.53;77.46
50226;BME280;36113;50.742;6.432;2023-08-24T05:48:57;98812.38;;;18.55;77.63
50226;BME280;36113;50.742;6.432;2023-08-24T05:51:23;98809.13;;;18.53;77.31
50226;BME280;36113;50.742;6.432;2023-08-24T05:53:48;98805.75;;;18.56;77.55
50226;BME280;36113;50.742;6.432;2023-08-24T05:56:13;98804.09;;;18.64;77.06
50226;BME280;36113;50.742;6.432;2023-08-24T05:58:38;98799.88;;;18.75;76.56
50226;BME280;36113;50.742;6.432;2023-08-24T06:01:04;98802.50;;;18.89;76.11
50226;BME280;36113;50.742;6.432;2023-08-24T06:03:29;98791.41;;;19.06;75.65
50226;BME280;36113;50.742;6.432;2023-08-24T06:06:00;98791.53;;;19.27;75.13
50226;BME280;36113;50.742;6.432;2023-08-24T06:08:26;98781.72;;;19.47;74.58
50226;BME280;36113;50.742;6.432;2023-08-24T06:10:51;98775.31;;;19.64;73.70
50226;BME280;36113;50.742;6.432;2023-08-24T06:13:16;98776.59;;;19.75;73.28
50226;BME280;36113;50.742;6.432;2023-08-24T06:15:41;98770.81;;;19.89;72.85
50226;BME280;36113;50.742;6.432;2023-08-24T06:18:07;98772.66;;;20.06;71.71
50226;BME280;36113;50.742;6.432;2023-08-24T06:20:32;98776.28;;;20.19;71.59
50226;BME280;36113;50.742;6.432;2023-08-24T06:22:57;98774.16;;;20.24;70.38
50226;BME280;36113;50.742;6.432;2023-08-24T06:25:22;98778.81;;;20.33;70.06
50226;BME280;36113;50.742;6.432;2023-08-24T06:27:48;98772.53;;;20.44;69.69
50226;BME280;36113;50.742;6.432;2023-08-24T06:30:13;98767.16;;;20.48;69.93
50226;BME280;36113;50.742;6.432;2023-08-24T06:32:38;98770.81;;;20.52;70.31
50226;BME280;36113;50.742;6.432;2023-08-24T06:35:04;98757.31;;;20.59;69.98
50226;BME280;36113;50.742;6.432;2023-08-24T06:37:31;98761.13;;;20.67;69.67
50226;BME280;36113;50.742;6.432;2023-08-24T06:39:56;98756.22;;;20.73;68.89
50226;BME280;36113;50.742;6.432;2023-08-24T06:42:21;98741.84;;;20.79;68.90
50226;BME280;36113;50.742;6.432;2023-08-24T06:44:47;98740.34;;;20.82;68.20
50226;BME280;36113;50.742;6.432;2023-08-24T06:47:14;98742.56;;;20.88;68.23
50226;BME280;36113;50.742;6.432;2023-08-24T06:49:40;98697.41;;;20.84;67.68
50226;BME280;36113;50.742;6.432;2023-08-24T06:52:05;98731.56;;;21.25;67.57
50226;BME280;36113;50.742;6.432;2023-08-24T06:54:30;98735.59;;;21.40;67.09
50226;BME280;36113;50.742;6.432;2023-08-24T06:56:55;98732.06;;;21.52;66.78
50226;BME280;36113;50.742;6.432;2023-08-24T06:59:21;98731.25;;;21.64;66.74
50226;BME280;36113;50.742;6.432;2023-08-24T07:01:46;98716.97;;;21.74;66.48
50226;BME280;36113;50.742;6.432;2023-08-24T07:04:12;98725.34;;;21.78;66.16
50226;BME280;36113;50.742;6.432;2023-08-24T07:06:37;98717.38;;;21.88;66.09
50226;BME280;36113;50.742;6.432;2023-08-24T07:09:02;98721.38;;;22.03;65.26
50226;BME280;36113;50.742;6.432;2023-08-24T07:11:31;98718.72;;;22.07;65.31
50226;BME280;36113;50.742;6.432;2023-08-24T07:13:56;98715.00;;;22.15;64.73
50226;BME280;36113;50.742;6.432;2023-08-24T07:16:22;98713.03;;;22.28;63.82
50226;BME280;36113;50.742;6.432;2023-08-24T07:18:47;98709.66;;;22.35;63.25
50226;BME280;36113;50.742;6.432;2023-08-24T07:21:12;98710.13;;;22.37;63.68
50226;BME280;36113;50.742;6.432;2023-08-24T07:23:39;98719.78;;;22.43;63.23
50226;BME280;36113;50.742;6.432;2023-08-24T07:26:04;98716.22;;;22.58;63.45
50226;BME280;36113;50.742;6.432;2023-08-24T07:28:30;98713.53;;;22.74;62.15
50226;BME280;36113;50.742;6.432;2023-08-24T07:30:55;98709.22;;;22.77;62.31
50226;BME280;36113;50.742;6.432;2023-08-24T07:33:21;98706.38;;;22.89;62.22
50226;BME280;36113;50.742;6.432;2023-08-24T07:35:47;98704.94;;;22.95;61.96
50226;BME280;36113;50.742;6.432;2023-08-24T07:38:12;98704.28;;;23.14;61.61
50226;BME280;36113;50.742;6.432;2023-08-24T07:40:37;98703.81;;;23.28;61.42
50226;BME280;36113;50.742;6.432;2023-08-24T07:43:02;98716.09;;;23.43;61.36
50226;BME280;36113;50.742;6.432;2023-08-24T07:45:29;98701.72;;;23.57;61.49
50226;BME280;36113;50.742;6.432;2023-08-24T07:47:54;98706.53;;;23.75;60.73
50226;BME280;36113;50.742;6.432;2023-08-24T07:50:20;98712.50;;;23.93;61.16
50226;BME280;36113;50.742;6.432;2023-08-24T07:52:45;98721.66;;;24.13;60.72
50226;BME280;36113;50.742;6.432;2023-08-24T07:55:10;98719.63;;;24.30;60.53
50226;BME280;36113;50.742;6.432;2023-08-24T07:57:36;98711.56;;;24.44;59.72
50226;BME280;36113;50.742;6.432;2023-08-24T08:00:02;98707.50;;;24.57;59.23
50226;BME280;36113;50.742;6.432;2023-08-24T08:02:27;98706.22;;;24.74;58.76
50226;BME280;36113;50.742;6.432;2023-08-24T08:04:56;98708.00;;;24.86;58.16
50226;BME280;36113;50.742;6.432;2023-08-24T08:07:22;98710.88;;;24.90;56.56
50226;BME280;36113;50.742;6.432;2023-08-24T08:09:48;98699.81;;;24.93;56.10
50226;BME280;36113;50.742;6.432;2023-08-24T08:12:13;98699.50;;;24.98;56.86
50226;BME280;36113;50.742;6.432;2023-08-24T08:14:38;98701.34;;;25.14;56.45
50226;BME280;36113;50.742;6.432;2023-08-24T08:17:04;98700.38;;;25.26;56.34
50226;BME280;36113;50.742;6.432;2023-08-24T08:19:29;98700.13;;;25.34;55.31
50226;BME280;36113;50.742;6.432;2023-08-24T08:21:54;98694.63;;;25.38;55.08
50226;BME280;36113;50.742;6.432;2023-08-24T08:24:19;98700.19;;;25.38;54.98
50226;BME280;36113;50.742;6.432;2023-08-24T08:26:44;98689.50;;;25.40;55.00
50226;BME280;36113;50.742;6.432;2023-08-24T08:29:10;98688.31;;;25.41;55.03
50226;BME280;36113;50.742;6.432;2023-08-24T08:31:35;98687.16;;;25.42;55.26
50226;BME280;36113;50.742;6.432;2023-08-24T08:34:00;98689.16;;;25.45;55.00
50226;BME280;36113;50.742;6.432;2023-08-24T08:36:26;98679.38;;;25.55;55.14
50226;BME280;36113;50.742;6.432;2023-08-24T08:38:51;98681.94;;;25.67;54.78
50226;BME280;36113;50.742;6.432;2023-08-24T08:41:17;98686.22;;;25.88;54.81
50226;BME280;36113;50.742;6.432;2023-08-24T08:43:43;98680.38;;;25.96;54.71
50226;BME280;36113;50.742;6.432;2023-08-24T08:46:09;98682.50;;;26.07;53.78
50226;BME280;36113;50.742;6.432;2023-08-24T08:48:34;98678.16;;;26.09;52.04
50226;BME280;36113;50.742;6.432;2023-08-24T08:51:00;98668.63;;;26.10;52.07
50226;BME280;36113;50.742;6.432;2023-08-24T08:53:27;98669.59;;;26.25;52.39
50226;BME280;36113;50.742;6.432;2023-08-24T08:55:54;98658.63;;;26.39;51.87
50226;BME280;36113;50.742;6.432;2023-08-24T08:58:20;98659.28;;;26.59;51.08
50226;BME280;36113;50.742;6.432;2023-08-24T09:00:45;98656.47;;;26.59;50.31
50226;BME280;36113;50.742;6.432;2023-08-24T09:03:11;98641.34;;;26.60;51.13
50226;BME280;36113;50.742;6.432;2023-08-24T09:05:38;98630.75;;;26.77;50.87
50226;BME280;36113;50.742;6.432;2023-08-24T09:08:03;98620.56;;;26.95;50.29
50226;BME280;36113;50.742;6.432;2023-08-24T09:10:29;98623.47;;;27.13;49.38
50226;BME280;36113;50.742;6.432;2023-08-24T09:12:55;98605.16;;;27.12;49.18
50226;BME280;36113;50.742;6.432;2023-08-24T09:15:24;98596.09;;;27.26;49.02
50226;BME280;36113;50.742;6.432;2023-08-24T09:17:50;98587.03;;;27.43;48.70
50226;BME280;36113;50.742;6.432;2023-08-24T09:20:15;98582.72;;;27.57;48.33
50226;BME280;36113;50.742;6.432;2023-08-24T09:22:41;98576.38;;;27.63;47.87
50226;BME280;36113;50.742;6.432;2023-08-24T09:25:09;98573.19;;;27.69;47.37
50226;BME280;36113;50.742;6.432;2023-08-24T09:27:34;98572.03;;;27.80;47.58
50226;BME280;36113;50.742;6.432;2023-08-24T09:30:00;98576.53;;;27.92;46.85
50226;BME280;36113;50.742;6.432;2023-08-24T09:32:28;98586.50;;;27.97;46.98
50226;BME280;36113;50.742;6.432;2023-08-24T09:34:54;98596.50;;;27.94;46.07
50226;BME280;36113;50.742;6.432;2023-08-24T09:37:19;98596.94;;;28.14;46.28
50226;BME280;36113;50.742;6.432;2023-08-24T09:39:45;98611.75;;;28.33;45.85
50226;BME280;36113;50.742;6.432;2023-08-24T09:42:10;98614.16;;;28.31;46.36
50226;BME280;36113;50.742;6.432;2023-08-24T09:44:35;98618.53;;;28.32;46.32
50226;BME280;36113;50.742;6.432;2023-08-24T09:47:01;98626.56;;;28.37;46.77
50226;BME280;36113;50.742;6.432;2023-08-24T09:49:27;98624.97;;;28.46;46.63
50226;BME280;36113;50.742;6.432;2023-08-24T09:51:55;98617.78;;;28.42;45.83
50226;BME280;36113;50.742;6.432;2023-08-24T09:54:21;98605.00;;;28.44;45.96
50226;BME280;36113;50.742;6.432;2023-08-24T09:56:46;98609.84;;;28.58;46.05
50226;BME280;36113;50.742;6.432;2023-08-24T10:01:40;98629.84;;;28.75;46.09
50226;BME280;36113;50.742;6.432;2023-08-24T10:04:06;98624.66;;;28.84;45.94
50226;BME280;36113;50.742;6.432;2023-08-24T10:06:33;98631.47;;;28.83;45.64
50226;BME280;36113;50.742;6.432;2023-08-24T10:09:01;98624.25;;;28.82;45.75
50226;BME280;36113;50.742;6.432;2023-08-24T10:11:29;98626.25;;;28.85;45.75
50226;BME280;36113;50.742;6.432;2023-08-24T10:14:10;98628.66;;;28.79;45.11
50226;BME280;36113;50.742;6.432;2023-08-24T10:16:37;98629.41;;;28.62;43.69
50226;BME280;36113;50.742;6.432;2023-08-24T10:19:02;98633.75;;;28.34;44.38
50226;BME280;36113;50.742;6.432;2023-08-24T10:21:28;98640.88;;;28.24;45.08
50226;BME280;36113;50.742;6.432;2023-08-24T10:23:55;98642.91;;;28.31;46.11
50226;BME280;36113;50.742;6.432;2023-08-24T10:26:21;98636.50;;;28.31;45.17
50226;BME280;36113;50.742;6.432;2023-08-24T10:28:47;98646.47;;;28.24;44.85
50226;BME280;36113;50.742;6.432;2023-08-24T10:31:14;98651.69;;;28.30;45.32
50226;BME280;36113;50.742;6.432;2023-08-24T10:33:39;98641.66;;;28.14;45.34
50226;BME280;36113;50.742;6.432;2023-08-24T10:36:06;98639.25;;;28.13;45.61
50226;BME280;36113;50.742;6.432;2023-08-24T10:38:33;98646.00;;;28.01;45.39
50226;BME280;36113;50.742;6.432;2023-08-24T10:41:02;98642.78;;;28.02;46.78
50226;BME280;36113;50.742;6.432;2023-08-24T10:43:34;98641.22;;;28.01;46.40
50226;BME280;36113;50.742;6.432;2023-08-24T10:46:00;98636.78;;;27.93;46.43
50226;BME280;36113;50.742;6.432;2023-08-24T10:48:29;98635.59;;;27.94;46.62
50226;BME280;36113;50.742;6.432;2023-08-24T10:53:43;98650.00;;;28.03;47.62
50226;BME280;36113;50.742;6.432;2023-08-24T10:56:12;98648.78;;;28.04;47.82
50226;BME280;36113;50.742;6.432;2023-08-24T10:58:38;98658.34;;;27.96;47.58
50226;BME280;36113;50.742;6.432;2023-08-24T11:01:03;98646.78;;;27.98;47.83
50226;BME280;36113;50.742;6.432;2023-08-24T11:03:31;98647.91;;;27.90;47.86
50226;BME280;36113;50.742;6.432;2023-08-24T11:06:00;98650.66;;;27.79;48.27
50226;BME280;36113;50.742;6.432;2023-08-24T11:08:44;98647.34;;;27.62;48.25
50226;BME280;36113;50.742;6.432;2023-08-24T11:11:19;98643.69;;;27.51;48.59
50226;BME280;36113;50.742;6.432;2023-08-24T11:16:38;98672.31;;;27.37;49.87
50226;BME280;36113;50.742;6.432;2023-08-24T11:19:04;98692.94;;;27.22;50.42
50226;BME280;36113;50.742;6.432;2023-08-24T11:21:30;98715.50;;;27.06;51.25
50226;BME280;36113;50.742;6.432;2023-08-24T11:23:56;98736.09;;;26.94;52.06
50226;BME280;36113;50.742;6.432;2023-08-24T11:26:21;98728.28;;;26.70;53.23
50226;BME280;36113;50.742;6.432;2023-08-24T11:28:47;98736.59;;;26.66;54.02
50226;BME280;36113;50.742;6.432;2023-08-24T11:31:17;98748.75;;;26.51;53.21
50226;BME280;36113;50.742;6.432;2023-08-24T11:33:43;98763.59;;;26.28;53.72
50226;BME280;36113;50.742;6.432;2023-08-24T11:36:08;98772.09;;;26.09;54.79
50226;BME280;36113;50.742;6.432;2023-08-24T11:38:39;98783.50;;;25.77;56.53
50226;BME280;36113;50.742;6.432;2023-08-24T11:41:15;98807.28;;;25.48;57.96
50226;BME280;36113;50.742;6.432;2023-08-24T11:43:41;98796.88;;;25.22;59.67
50226;BME280;36113;50.742;6.432;2023-08-24T11:46:07;98789.59;;;24.94;60.44
50226;BME280;36113;50.742;6.432;2023-08-24T11:48:32;98756.72;;;24.57;62.02
50226;BME280;36113;50.742;6.432;2023-08-24T11:50:58;98794.06;;;24.60;62.32
50226;BME280;36113;50.742;6.432;2023-08-24T11:53:24;98788.28;;;24.29;64.39
50226;BME280;36113;50.742;6.432;2023-08-24T11:55:49;98778.75;;;23.95;66.36
50226;BME280;36113;50.742;6.432;2023-08-24T11:58:15;98765.00;;;23.67;66.88
50226;BME280;36113;50.742;6.432;2023-08-24T12:00:41;98763.13;;;23.39;68.74
50226;BME280;36113;50.742;6.432;2023-08-24T12:03:06;98741.94;;;23.15;70.08
50226;BME280;36113;50.742;6.432;2023-08-24T12:05:31;98738.19;;;23.07;69.51
50226;BME280;36113;50.742;6.432;2023-08-24T12:07:57;98747.16;;;22.88;70.35
50226;BME280;36113;50.742;6.432;2023-08-24T12:10:22;98746.56;;;22.67;71.00
50226;BME280;36113;50.742;6.432;2023-08-24T12:12:47;98714.06;;;22.51;71.13
50226;BME280;36113;50.742;6.432;2023-08-24T12:15:19;98705.03;;;22.39;71.61
50226;BME280;36113;50.742;6.432;2023-08-24T12:17:46;98684.09;;;22.25;72.06
50226;BME280;36113;50.742;6.432;2023-08-24T12:20:18;98676.69;;;22.17;71.88
50226;BME280;36113;50.742;6.432;2023-08-24T12:22:43;98647.56;;;22.07;72.94
50226;BME280;36113;50.742;6.432;2023-08-24T12:25:09;98636.25;;;22.00;73.77
50226;BME280;36113;50.742;6.432;2023-08-24T12:27:34;98613.06;;;22.05;74.16
50226;BME280;36113;50.742;6.432;2023-08-24T12:30:02;98584.44;;;22.13;74.38
50226;BME280;36113;50.742;6.432;2023-08-24T12:32:41;98578.91;;;22.13;74.46
50226;BME280;36113;50.742;6.432;2023-08-24T12:35:07;98603.00;;;22.13;74.02
50226;BME280;36113;50.742;6.432;2023-08-24T12:37:32;98591.97;;;22.00;74.37
50226;BME280;36113;50.742;6.432;2023-08-24T12:39:57;98566.34;;;21.87;74.13
50226;BME280;36113;50.742;6.432;2023-08-24T12:42:22;98556.22;;;21.79;75.25
50226;BME280;36113;50.742;6.432;2023-08-24T12:44:48;98560.50;;;21.77;74.62
50226;BME280;36113;50.742;6.432;2023-08-24T12:47:13;98579.31;;;21.71;74.98
50226;BME280;36113;50.742;6.432;2023-08-24T12:49:38;98577.25;;;21.68;74.53
50226;BME280;36113;50.742;6.432;2023-08-24T12:52:03;98534.72;;;21.60;74.22
50226;BME280;36113;50.742;6.432;2023-08-24T12:54:29;98562.31;;;21.57;73.99
50226;BME280;36113;50.742;6.432;2023-08-24T12:56:54;98559.56;;;21.44;73.70
50226;BME280;36113;50.742;6.432;2023-08-24T12:59:19;98527.66;;;21.35;75.11
50226;BME280;36113;50.742;6.432;2023-08-24T13:01:44;98513.00;;;21.34;75.56